Aérodrome :
LOGIN :

S'inscrire | Disclaimer

   EN    FR    IT 

 










Légende :    VFR   VFR Marginal   IFR   IFR Intensif   IFR Très Intensif
Visi : 
Plafond : 
>= 8 km
>= 3000ft
5 à 8 km
1000 à 3000 ft
1500m à 5 km
500 à 1000 ft
800 à 1500m
200 à 500 ft
< 800m
< 200 ft
Symboles :   Orages  Brouillard  Fortes neiges  Fortes précipitations  Vent > 20 kt
SIGMETs :   Divers  Orages  Givrage  Turbulence  Onde Orograph.  Cendres Volcan.







- Altitude de l'aérodrome : 80 ft
- Code IATA : LPL
- Voir les cartes d'approche


EGGP - Liverpool John Lennon

DERNIER METAR :
  • 220620Z 18004KT 150V210 CAVOK 14/12 Q1006

METARs EXPIRÉS :
  • 220550Z 16005KT 110V190 CAVOK 14/12 Q1006
  • 220520Z 18008KT CAVOK 14/12 Q1006
  • 220450Z 16008KT 130V190 CAVOK 14/12 Q1007
  • 220420Z 17009KT CAVOK 14/11 Q1007
  • 220350Z 19009KT CAVOK 14/12 Q1007

TAF TAF EGGP
Valide du 22 à 06h jusqu'au 23 à 06h UTC


220457Z 2206/2306 17005KT 9999 FEW040
TEMPO 2208/2214 5000 RA -RADZ
BECMG 2209/2212 24010KT
PROB30
TEMPO 2211/2213 BKN014
PROB40
TEMPO 2217/2222 7000 SHRA
ATIS : +44 151 907 2000 (option 5 or ext 5150)
Météo : +44 871 750 5150
Pas de NOTAMs connus pour ce terrain.
1 SIGMET publié pour la FIR London (EGTT) :
 
Orages noyés dans la masse avec grêle
EGTT SIGMET 01 VALID 220330/220700 EGRR
EGTT LONDON FIR EMBD TSGR FCST WI N5437 W00243 - N5340 E00142 - N5142 E00150 - N5213 W00132 - N5437 W00243 TOP FL320 MOV N 15KT NC=



MET'MAP, la Météo Aéronautique d'un coup d'oeil ! - Copyright ORBIFLY Décembre 2007 - Disclaimer

ORBIFLY MET'MAP TEAM :

Programmation & Développement : Alexandra Zaïnal
Conception & Développement : Baudouin d'Aumeries
Co-Programmation & Développement : Marc-Olivier Méhu
Soutien technique & logistique : Manuel Goepfert

Contact : metmap@orbifly.com




SOURCES & CREDITS :

   NOAA